createdAt,value
2022-10-15T00:00:40.372Z,23.83
2022-10-15T00:03:07.417Z,23.88
2022-10-15T00:08:03.015Z,25.42
2022-10-15T00:10:29.755Z,25.60
2022-10-15T00:12:56.652Z,24.75
2022-10-15T00:17:49.960Z,24.55
2022-10-15T00:20:17.248Z,23.45
2022-10-15T00:22:44.018Z,24.55
2022-10-15T00:25:10.779Z,27.15
2022-10-15T00:27:38.190Z,24.85
2022-10-15T00:30:06.271Z,24.40
2022-10-15T00:32:33.485Z,25.05
2022-10-15T00:35:00.128Z,25.70
2022-10-15T00:37:26.817Z,25.88
2022-10-15T00:39:53.460Z,26.10
2022-10-15T00:42:20.367Z,25.80
2022-10-15T00:44:53.695Z,27.10
2022-10-15T00:47:46.102Z,26.63
2022-10-15T00:50:16.841Z,26.63
2022-10-15T00:52:56.351Z,26.80
2022-10-15T00:55:27.068Z,25.08
2022-10-15T00:57:55.694Z,26.70
2022-10-15T01:00:22.730Z,27.77
2022-10-15T01:02:49.400Z,26.63
2022-10-15T01:05:18.138Z,28.85
2022-10-15T01:07:44.828Z,28.23
2022-10-15T01:10:12.393Z,28.38
2022-10-15T01:12:53.311Z,30.02
2022-10-15T01:15:26.389Z,28.63
2022-10-15T01:18:02.047Z,29.40
2022-10-15T01:20:52.471Z,29.27
2022-10-15T01:23:36.939Z,28.95
2022-10-15T01:26:25.790Z,29.85
2022-10-15T01:29:29.347Z,29.30
2022-10-15T01:32:09.004Z,27.35
2022-10-15T01:34:44.507Z,30.33
2022-10-15T01:37:42.123Z,31.20
2022-10-15T01:40:17.801Z,28.83
2022-10-15T01:42:48.530Z,31.73
2022-10-15T01:45:22.024Z,29.45
2022-10-15T01:48:10.496Z,32.67
2022-10-15T01:50:44.308Z,31.15
2022-10-15T01:53:12.991Z,31.92
2022-10-15T01:55:43.115Z,31.25
2022-10-15T01:58:12.534Z,32.33
2022-10-15T02:00:42.163Z,33.38
2022-10-15T02:03:09.763Z,32.42
2022-10-15T02:05:44.953Z,32.90
2022-10-15T02:08:17.603Z,32.35
2022-10-15T02:10:53.615Z,32.42
2022-10-15T02:13:26.293Z,31.33
2022-10-15T02:16:13.975Z,32.70
2022-10-15T02:19:05.601Z,33.78
2022-10-15T02:21:45.530Z,33.53
2022-10-15T02:24:23.835Z,31.52
2022-10-15T02:26:53.661Z,31.35
2022-10-15T02:29:23.380Z,31.25
2022-10-15T02:31:51.090Z,32.15
2022-10-15T02:34:21.900Z,30.90
2022-10-15T02:36:49.586Z,31.10
2022-10-15T02:39:21.940Z,31.73
2022-10-15T02:41:49.837Z,30.00
2022-10-15T02:44:16.827Z,31.63
2022-10-15T02:49:11.325Z,30.95
2022-10-15T02:51:38.021Z,30.67
2022-10-15T02:54:07.003Z,30.40
2022-10-15T02:56:34.186Z,30.13
2022-10-15T02:59:01.743Z,31.30
2022-10-15T03:01:28.929Z,32.55
2022-10-15T03:03:55.875Z,30.10
2022-10-15T03:06:22.615Z,32.38
2022-10-15T03:08:49.632Z,30.65
2022-10-15T03:11:16.891Z,32.30
2022-10-15T03:13:43.592Z,32.50
2022-10-15T03:16:11.727Z,31.52
2022-10-15T03:18:41.045Z,31.17
2022-10-15T03:21:09.813Z,31.98
2022-10-15T03:23:36.709Z,30.25
2022-10-15T03:26:09.506Z,31.83
2022-10-15T03:28:36.274Z,31.38
2022-10-15T03:33:29.967Z,30.40
2022-10-15T03:35:57.464Z,30.17
2022-10-15T03:38:24.805Z,29.70
2022-10-15T03:40:52.951Z,30.02
2022-10-15T03:43:42.858Z,29.95
2022-10-15T03:46:10.552Z,30.00
2022-10-15T03:48:41.523Z,33.50
2022-10-15T03:51:10.567Z,29.92
2022-10-15T03:53:38.290Z,30.27
2022-10-15T03:56:06.456Z,29.00
2022-10-15T03:58:36.949Z,28.60
2022-10-15T04:01:24.223Z,28.23
2022-10-15T04:03:54.224Z,31.02
2022-10-15T04:06:25.081Z,29.45
2022-10-15T04:11:26.020Z,30.58
2022-10-15T04:14:01.266Z,30.05
2022-10-15T04:16:29.223Z,29.92
2022-10-15T04:18:58.597Z,28.90
2022-10-15T04:21:26.007Z,29.67
2022-10-15T04:23:57.932Z,31.13
2022-10-15T04:26:30.320Z,30.40
2022-10-15T04:28:59.779Z,29.67
2022-10-15T04:31:27.687Z,31.67
2022-10-15T04:33:54.824Z,30.25
2022-10-15T04:36:21.449Z,31.40
2022-10-15T04:39:01.648Z,32.22
2022-10-15T04:41:40.895Z,29.55
2022-10-15T04:44:10.553Z,30.70
2022-10-15T04:46:38.187Z,31.05
2022-10-15T04:49:23.565Z,30.58
2022-10-15T04:51:50.708Z,31.85
2022-10-15T04:54:22.075Z,32.17
2022-10-15T04:56:58.215Z,31.75
2022-10-15T04:59:25.232Z,31.30
2022-10-15T05:02:18.365Z,30.98
2022-10-15T05:04:49.810Z,31.90
2022-10-15T05:07:17.224Z,30.70
2022-10-15T05:09:46.481Z,32.13
2022-10-15T05:12:13.770Z,30.75
2022-10-15T05:14:41.795Z,30.23
2022-10-15T05:17:15.037Z,31.75
2022-10-15T05:19:43.280Z,29.55
2022-10-15T05:22:17.014Z,30.52
2022-10-15T05:24:50.604Z,30.77
2022-10-15T05:27:25.475Z,31.48
2022-10-15T05:29:52.152Z,31.63
2022-10-15T05:34:51.330Z,32.47
2022-10-15T05:37:18.180Z,34.33
2022-10-15T05:39:44.814Z,36.00
2022-10-15T05:42:11.904Z,35.63
2022-10-15T05:44:41.851Z,38.35
2022-10-15T05:47:11.801Z,33.42
2022-10-15T05:49:39.084Z,37.42
2022-10-15T05:52:21.488Z,34.78
2022-10-15T05:55:11.583Z,32.70
2022-10-15T05:57:38.198Z,34.42
2022-10-15T06:00:06.609Z,33.90
2022-10-15T06:02:38.769Z,33.28
2022-10-15T06:05:06.568Z,32.25
2022-10-15T06:07:33.179Z,32.17
2022-10-15T06:10:03.375Z,30.10
2022-10-15T06:12:33.949Z,31.30
2022-10-15T06:17:27.193Z,30.45
2022-10-15T06:19:53.815Z,29.45
2022-10-15T06:22:20.444Z,30.05
2022-10-15T06:24:47.519Z,29.48
2022-10-15T06:27:14.672Z,28.25
2022-10-15T06:29:41.345Z,29.40
2022-10-15T06:32:11.948Z,29.05
2022-10-15T06:34:43.145Z,28.35
2022-10-15T06:37:09.944Z,27.52
2022-10-15T06:39:36.631Z,27.38
2022-10-15T06:42:03.735Z,28.15
2022-10-15T06:44:40.445Z,27.42
2022-10-15T06:47:07.565Z,29.05
2022-10-15T06:49:34.692Z,27.02
2022-10-15T06:52:03.606Z,27.67
2022-10-15T06:54:30.751Z,27.90
2022-10-15T06:56:57.433Z,27.75
2022-10-15T06:59:24.093Z,26.88
2022-10-15T07:01:51.185Z,29.08
2022-10-15T07:04:17.813Z,26.60
2022-10-15T07:06:44.868Z,28.85
2022-10-15T07:09:11.541Z,24.98
2022-10-15T07:11:38.183Z,25.30
2022-10-15T07:14:05.243Z,24.60
2022-10-15T07:16:31.920Z,24.13
2022-10-15T07:18:58.654Z,23.67
2022-10-15T07:21:25.342Z,23.90
2022-10-15T07:23:52.001Z,23.48
2022-10-15T07:26:19.035Z,23.15
2022-10-15T07:28:45.721Z,23.48
2022-10-15T07:31:12.832Z,21.15
2022-10-15T07:33:40.023Z,20.83
2022-10-15T07:36:09.318Z,22.55
2022-10-15T07:38:36.788Z,20.05
2022-10-15T07:41:04.787Z,20.50
2022-10-15T07:43:32.481Z,19.67
2022-10-15T07:45:59.156Z,20.50
2022-10-15T07:48:25.903Z,19.73
2022-10-15T07:51:04.248Z,18.95
2022-10-15T07:53:31.437Z,19.00
2022-10-15T07:56:07.894Z,18.67
2022-10-15T07:58:35.815Z,18.27
2022-10-15T08:01:03.889Z,18.73
2022-10-15T08:03:31.043Z,17.17
2022-10-15T08:06:01.016Z,17.02
2022-10-15T08:08:28.796Z,18.05
2022-10-15T08:10:55.980Z,16.33
2022-10-15T08:15:50.607Z,16.13
2022-10-15T08:20:43.829Z,15.32
2022-10-15T08:23:17.098Z,15.30
2022-10-15T08:28:12.382Z,13.10
2022-10-15T08:30:39.104Z,14.65
2022-10-15T08:33:12.416Z,13.57
2022-10-15T08:35:43.509Z,12.50
2022-10-15T08:38:16.261Z,12.63
2022-10-15T08:40:51.732Z,12.32
2022-10-15T08:43:41.602Z,11.45
2022-10-15T08:46:22.479Z,12.00
2022-10-15T08:48:54.999Z,12.23
2022-10-15T08:51:28.621Z,12.88
2022-10-15T08:53:59.400Z,11.70
2022-10-15T08:56:39.421Z,12.73
2022-10-15T08:59:21.005Z,11.32
2022-10-15T09:01:50.871Z,12.52
2022-10-15T09:04:20.387Z,11.30
2022-10-15T09:06:49.065Z,12.38
2022-10-15T09:09:48.007Z,11.13
2022-10-15T09:12:42.300Z,10.52
2022-10-15T09:15:23.935Z,10.40
2022-10-15T09:17:55.776Z,9.20
2022-10-15T09:20:34.535Z,9.63
2022-10-15T09:23:01.481Z,9.70
2022-10-15T09:25:36.432Z,9.90
2022-10-15T09:28:11.337Z,9.32
2022-10-15T09:30:45.303Z,10.63
2022-10-15T09:33:36.689Z,10.60
2022-10-15T09:36:28.577Z,10.15
2022-10-15T09:39:20.950Z,10.30
2022-10-15T09:42:14.816Z,10.80
2022-10-15T09:44:43.801Z,10.02
2022-10-15T09:47:29.762Z,9.95
2022-10-15T09:50:04.925Z,9.65
2022-10-15T09:52:55.509Z,10.98
2022-10-15T09:55:46.437Z,10.80
2022-10-15T09:58:23.241Z,10.00
2022-10-15T10:00:54.535Z,10.50
2022-10-15T10:03:24.430Z,12.38
2022-10-15T10:05:58.532Z,12.23
2022-10-15T10:08:29.165Z,13.40
2022-10-15T10:11:04.327Z,12.98
2022-10-15T10:13:41.094Z,11.88
2022-10-15T10:16:12.582Z,12.98
2022-10-15T10:18:39.508Z,12.40
2022-10-15T10:21:30.713Z,13.27
2022-10-15T10:24:18.224Z,12.30
2022-10-15T10:26:46.359Z,12.35
2022-10-15T10:29:32.818Z,13.18
2022-10-15T10:32:00.530Z,11.25
2022-10-15T10:34:30.439Z,12.55
2022-10-15T10:37:02.907Z,11.32
2022-10-15T10:39:32.307Z,11.13
2022-10-15T10:42:07.715Z,10.13
2022-10-15T10:44:36.639Z,9.25
2022-10-15T10:47:22.624Z,8.65
2022-10-15T10:49:55.496Z,8.13
2022-10-15T10:52:24.311Z,7.90
2022-10-15T10:55:18.307Z,7.63
2022-10-15T10:57:52.836Z,6.07
2022-10-15T11:00:29.931Z,6.40
2022-10-15T11:02:57.449Z,5.72
2022-10-15T11:05:27.855Z,5.55
2022-10-15T11:08:18.762Z,5.28
2022-10-15T11:10:59.970Z,5.30
2022-10-15T11:13:55.106Z,4.78
2022-10-15T11:16:33.277Z,5.97
2022-10-15T11:22:31.595Z,4.60
2022-10-15T11:25:08.234Z,4.97
2022-10-15T11:27:48.919Z,4.95
2022-10-15T11:30:40.070Z,4.90
2022-10-15T11:33:34.686Z,4.95
2022-10-15T11:36:14.234Z,4.60
2022-10-15T11:38:51.268Z,4.05
2022-10-15T11:41:47.905Z,3.50
2022-10-15T11:44:32.863Z,4.30
2022-10-15T11:47:03.318Z,4.00
2022-10-15T11:50:06.738Z,4.32
2022-10-15T11:53:02.370Z,4.25
2022-10-15T11:55:37.121Z,3.85
2022-10-15T11:58:16.809Z,4.80
2022-10-15T12:00:50.084Z,4.13
2022-10-15T12:03:25.032Z,4.25
2022-10-15T12:06:13.060Z,3.97
2022-10-15T12:08:43.012Z,3.92
2022-10-15T12:11:39.609Z,4.18
2022-10-15T12:14:30.188Z,3.78
2022-10-15T12:17:25.253Z,4.18
2022-10-15T12:19:55.996Z,3.97
2022-10-15T12:22:39.355Z,3.90
2022-10-15T12:25:07.059Z,3.72
2022-10-15T12:27:36.332Z,3.75
2022-10-15T12:30:03.374Z,3.67
2022-10-15T12:32:37.369Z,4.05
2022-10-15T12:35:16.392Z,3.63
2022-10-15T12:37:46.070Z,3.85
2022-10-15T12:40:30.923Z,3.88
2022-10-15T12:43:03.372Z,4.00
2022-10-15T12:45:48.709Z,4.53
2022-10-15T12:48:15.303Z,4.70
2022-10-15T12:50:43.085Z,4.65
2022-10-15T12:56:15.159Z,5.00
2022-10-15T12:58:49.077Z,5.50
2022-10-15T13:01:15.729Z,5.80
2022-10-15T13:03:56.070Z,6.22
2022-10-15T13:06:22.783Z,6.80
2022-10-15T13:11:29.108Z,5.32
2022-10-15T13:14:01.212Z,5.35
2022-10-15T13:16:29.152Z,5.70
2022-10-15T13:18:57.324Z,4.82
2022-10-15T13:21:50.123Z,4.60
2022-10-15T13:24:25.084Z,4.80
2022-10-15T13:26:53.382Z,4.53
2022-10-15T13:29:25.565Z,5.20
2022-10-15T13:31:54.575Z,5.53
2022-10-15T13:34:34.699Z,5.70
2022-10-15T13:37:03.940Z,5.00
2022-10-15T13:39:36.819Z,5.25
2022-10-15T13:42:14.508Z,5.57
2022-10-15T13:44:41.495Z,5.28
2022-10-15T13:47:35.221Z,4.85
2022-10-15T13:50:20.655Z,5.20
2022-10-15T13:53:08.423Z,5.60
2022-10-15T13:55:38.904Z,5.25
2022-10-15T13:58:27.978Z,5.55
2022-10-15T14:01:02.589Z,5.25
2022-10-15T14:03:31.696Z,4.90
2022-10-15T14:06:14.455Z,5.40
2022-10-15T14:08:41.115Z,5.75
2022-10-15T14:13:47.967Z,5.85
2022-10-15T14:16:23.012Z,4.90
2022-10-15T14:18:52.955Z,4.80
2022-10-15T14:21:28.693Z,4.10
2022-10-15T14:24:03.999Z,3.88
2022-10-15T14:26:31.812Z,4.32
2022-10-15T14:28:58.689Z,4.13
2022-10-15T14:31:40.957Z,3.70
2022-10-15T14:34:28.513Z,3.47
2022-10-15T14:36:55.454Z,3.10
2022-10-15T14:39:34.597Z,2.72
2022-10-15T14:42:02.601Z,2.60
2022-10-15T14:44:47.482Z,1.85
2022-10-15T14:47:26.133Z,2.30
2022-10-15T14:49:59.962Z,2.10
2022-10-15T14:52:30.291Z,2.25
2022-10-15T14:55:02.520Z,2.15
2022-10-15T14:57:36.082Z,2.60
2022-10-15T15:00:06.086Z,2.08
2022-10-15T15:02:32.860Z,1.90
2022-10-15T15:05:11.607Z,1.73
2022-10-15T15:07:39.055Z,1.50
2022-10-15T15:10:07.595Z,1.83
2022-10-15T15:12:35.005Z,1.50
2022-10-15T15:15:02.103Z,1.45
2022-10-15T15:17:30.181Z,1.40
2022-10-15T15:19:58.103Z,1.30
2022-10-15T15:22:31.782Z,1.10
2022-10-15T15:25:00.767Z,1.15
2022-10-15T15:27:37.051Z,0.93
2022-10-15T15:30:06.631Z,0.80
2022-10-15T15:32:33.653Z,1.10
2022-10-15T15:35:00.395Z,0.80
2022-10-15T15:37:29.281Z,0.80
2022-10-15T15:39:57.790Z,0.52
2022-10-15T15:42:25.651Z,0.88
2022-10-15T15:44:52.553Z,0.82
2022-10-15T15:49:45.793Z,1.00
2022-10-15T15:52:13.956Z,0.70
2022-10-15T15:54:41.043Z,0.90
2022-10-15T15:57:07.828Z,0.73
2022-10-15T15:59:35.020Z,1.00
2022-10-15T16:02:01.865Z,1.02
2022-10-15T16:04:28.547Z,1.35
2022-10-15T16:09:22.983Z,0.93
2022-10-15T16:11:50.466Z,1.00
2022-10-15T16:14:17.262Z,1.08
2022-10-15T16:19:14.063Z,1.02
2022-10-15T16:21:41.024Z,1.23
2022-10-15T16:24:07.909Z,0.90
2022-10-15T16:26:34.562Z,1.20
2022-10-15T16:29:01.251Z,1.10
2022-10-15T16:31:36.356Z,1.25
2022-10-15T16:34:04.598Z,1.30
2022-10-15T16:36:31.875Z,1.08
2022-10-15T16:38:58.922Z,1.35
2022-10-15T16:41:25.787Z,1.17
2022-10-15T16:43:52.423Z,1.10
2022-10-15T16:46:20.172Z,1.33
2022-10-15T16:48:53.084Z,1.13
2022-10-15T16:51:20.176Z,1.20
2022-10-15T16:53:47.864Z,1.20
2022-10-15T16:56:20.540Z,1.42
2022-10-15T16:58:47.803Z,1.20
2022-10-15T17:01:17.156Z,1.40
2022-10-15T17:03:45.351Z,1.30
2022-10-15T17:06:15.395Z,1.77
2022-10-15T17:08:47.522Z,1.60
2022-10-15T17:11:20.618Z,1.58
2022-10-15T17:13:48.902Z,1.50
2022-10-15T17:16:21.884Z,1.45
2022-10-15T17:18:48.928Z,1.70
2022-10-15T17:21:18.464Z,1.50
2022-10-15T17:23:45.613Z,1.40
2022-10-15T17:26:17.021Z,1.63
2022-10-15T17:28:45.132Z,1.10
2022-10-15T17:31:20.353Z,1.85
2022-10-15T17:33:47.520Z,1.80
2022-10-15T17:36:16.804Z,2.08
2022-10-15T17:38:44.753Z,1.30
2022-10-15T17:41:17.716Z,1.50
2022-10-15T17:43:44.961Z,1.33
2022-10-15T17:46:15.808Z,1.23
2022-10-15T17:48:43.076Z,1.48
2022-10-15T17:51:18.045Z,1.65
2022-10-15T17:53:45.556Z,1.50
2022-10-15T17:56:15.517Z,1.88
2022-10-15T17:58:43.107Z,1.85
2022-10-15T18:01:27.895Z,1.48
2022-10-15T18:04:04.314Z,1.50
2022-10-15T18:06:31.209Z,1.60
2022-10-15T18:11:35.415Z,1.83
2022-10-15T18:14:03.013Z,1.95
2022-10-15T18:16:30.124Z,2.50
2022-10-15T18:18:56.884Z,2.03
2022-10-15T18:21:25.211Z,2.20
2022-10-15T18:23:51.863Z,1.88
2022-10-15T18:26:21.820Z,1.67
2022-10-15T18:28:50.749Z,1.70
2022-10-15T18:31:17.802Z,1.90
2022-10-15T18:33:47.163Z,1.55
2022-10-15T18:36:19.984Z,1.67
2022-10-15T18:38:46.861Z,2.15
2022-10-15T18:43:41.731Z,1.83
2022-10-15T18:48:37.058Z,2.15
2022-10-15T18:51:08.895Z,1.77
2022-10-15T18:53:37.048Z,1.65
2022-10-15T18:56:05.699Z,1.50
2022-10-15T18:58:33.093Z,1.63
2022-10-15T19:01:20.910Z,1.70
2022-10-15T19:03:52.457Z,1.60
2022-10-15T19:06:22.442Z,1.77
2022-10-15T19:08:50.264Z,1.52
2022-10-15T19:11:17.446Z,1.60
2022-10-15T19:13:44.147Z,1.90
2022-10-15T19:16:11.869Z,1.65
2022-10-15T19:18:40.284Z,1.75
2022-10-15T19:23:35.712Z,1.58
2022-10-15T19:26:06.079Z,1.90
2022-10-15T19:28:33.320Z,1.63
2022-10-15T19:31:02.811Z,1.60
2022-10-15T19:33:34.278Z,1.73
2022-10-15T19:36:01.666Z,2.00
2022-10-15T19:38:28.563Z,1.60
2022-10-15T19:43:23.166Z,1.60
2022-10-15T19:45:50.040Z,1.88
2022-10-15T19:48:18.957Z,1.60
2022-10-15T19:50:47.249Z,1.50
2022-10-15T19:53:16.439Z,1.77
2022-10-15T19:55:54.385Z,1.40
2022-10-15T19:58:21.574Z,1.75
2022-10-15T20:00:49.211Z,1.70
2022-10-15T20:03:16.309Z,1.55
2022-10-15T20:05:44.577Z,1.88
2022-10-15T20:08:11.990Z,1.73
2022-10-15T20:10:44.422Z,1.35
2022-10-15T20:13:11.877Z,1.58
2022-10-15T20:15:42.761Z,1.60
2022-10-15T20:18:09.558Z,1.20
2022-10-15T20:20:37.782Z,1.35
2022-10-15T20:23:04.747Z,1.70
2022-10-15T20:25:32.193Z,1.55
2022-10-15T20:27:59.177Z,1.13
2022-10-15T20:30:25.976Z,1.10
2022-10-15T20:35:20.244Z,1.23
2022-10-15T20:37:47.120Z,1.65
2022-10-15T20:40:15.081Z,1.60
2022-10-15T20:42:41.801Z,1.50
2022-10-15T20:45:11.375Z,1.60
2022-10-15T20:47:41.996Z,1.92
2022-10-15T20:50:14.905Z,1.67
2022-10-15T20:52:42.544Z,1.63
2022-10-15T20:55:10.653Z,1.40
2022-10-15T20:57:38.042Z,1.40
2022-10-15T21:00:06.691Z,1.58
2022-10-15T21:02:33.597Z,1.98
2022-10-15T21:07:26.904Z,1.48
2022-10-15T21:09:53.969Z,1.60
2022-10-15T21:12:21.424Z,1.42
2022-10-15T21:14:48.300Z,1.63
2022-10-15T21:19:42.020Z,1.52
2022-10-15T21:22:08.793Z,1.70
2022-10-15T21:24:36.399Z,1.73
2022-10-15T21:27:03.120Z,1.70
2022-10-15T21:29:30.092Z,1.80
2022-10-15T21:34:27.582Z,1.80
2022-10-15T21:36:55.244Z,1.83
2022-10-15T21:39:22.655Z,1.90
2022-10-15T21:41:49.301Z,1.70
2022-10-15T21:44:16.185Z,2.50
2022-10-15T21:49:10.431Z,1.75
2022-10-15T21:51:37.942Z,1.52
2022-10-15T21:54:06.132Z,1.65
2022-10-15T21:56:33.618Z,1.60
2022-10-15T21:59:00.834Z,1.70
2022-10-15T22:01:31.093Z,1.50
2022-10-15T22:04:00.465Z,1.95
2022-10-15T22:06:27.488Z,1.65
2022-10-15T22:08:54.259Z,1.52
2022-10-15T22:11:24.416Z,1.90
2022-10-15T22:13:57.200Z,2.15
2022-10-15T22:16:25.547Z,1.70
2022-10-15T22:18:53.006Z,1.85
2022-10-15T22:21:22.471Z,1.63
2022-10-15T22:23:52.252Z,1.52
2022-10-15T22:26:21.467Z,1.30
2022-10-15T22:28:48.668Z,1.67
2022-10-15T22:31:17.100Z,1.50
2022-10-15T22:33:44.729Z,1.45
2022-10-15T22:36:17.316Z,1.30
2022-10-15T22:38:47.116Z,1.50
2022-10-15T22:41:15.093Z,1.65
2022-10-15T22:43:42.140Z,1.42
2022-10-15T22:46:09.200Z,1.98
2022-10-15T22:48:37.562Z,1.30
2022-10-15T22:51:07.105Z,1.63
2022-10-15T22:53:34.274Z,1.73
2022-10-15T22:56:07.367Z,1.45
2022-10-15T22:58:35.214Z,1.40
2022-10-15T23:01:15.932Z,1.55
2022-10-15T23:03:44.920Z,1.50
2022-10-15T23:06:12.116Z,1.55
2022-10-15T23:08:39.069Z,1.60
2022-10-15T23:13:56.470Z,1.60
2022-10-15T23:16:26.449Z,1.60
2022-10-15T23:18:58.137Z,1.55
2022-10-15T23:21:34.093Z,1.55
2022-10-15T23:24:01.808Z,1.50
2022-10-15T23:28:58.183Z,1.70
2022-10-15T23:31:28.576Z,1.52
2022-10-15T23:33:57.053Z,1.67
2022-10-15T23:36:25.472Z,1.73
2022-10-15T23:38:54.910Z,1.50
2022-10-15T23:41:22.087Z,1.45
2022-10-15T23:43:48.768Z,1.25
2022-10-15T23:46:16.078Z,1.73
2022-10-15T23:48:43.325Z,1.45
2022-10-15T23:51:24.658Z,1.50
2022-10-15T23:53:52.207Z,1.35
2022-10-15T23:56:19.244Z,1.30
2022-10-15T23:58:50.874Z,1.27
